Check out our new PWSWeather beta!
PWSweather.com
Personal Weather Stations
Station Observations
IPOITOUC11
Poitou Charentes, MareuilFR 16170

Poitou CharentesMareuilFR 16170

Lat: 45.761952, Lon: -0.15817

Elevation: 143.2

Station Type: WMR300 Oregon scientific

http://jarnacmeteo.cabanova.com

High Low Average
Temperature 57.0°F13.9°C 43.9°F6.6°C 50.3°F10.2°C
Dew Point 47.5°F8.6°C 41.8°F5.4°C 45.3°F7.4°C
Winds 8.1 mph 13.0 kmh Calm Calm 3.0 mph S4.8 kmh S
Wind Gusts 12.7 mph20.4 kmh -- 5.0 mph8.0 kmh
Humidity 93% 68% 84%
Pressure 30.35 in1027.8 mb 30.19 in1022.4 mb -
Precipitation 0.00 in0.0 mm - -
Hour Temp Dew Point Humidity Winds Wind Gusts Pressure Precip Precip Rate Daily Precip Total
12:00 AM 50.2°F10.1°C 44.9°F7.2°C 82% 6.9 mph WSW11.1 kmh WSW 11.5 mph18.5 kmh 30.19 in1022.4 mb - 0.00 in0.0 mm 0.00 in0.0 mm
12:30 AM 50.4°F10.2°C 45.4°F7.4°C 83% 6.9 mph SW11.1 kmh SW 8.1 mph13.0 kmh 30.21 in1023.0 mb - 0.00 in0.0 mm 0.00 in0.0 mm
01:00 AM 50.2°F10.1°C 45.8°F7.7°C 85% 5.8 mph WSW9.3 kmh WSW 6.9 mph11.1 kmh 30.22 in1023.4 mb - 0.00 in0.0 mm 0.00 in0.0 mm
01:30 AM 50.2°F10.1°C 46.2°F7.9°C 86% 5.8 mph WSW9.3 kmh WSW 11.5 mph18.5 kmh 30.22 in1023.4 mb - 0.00 in0.0 mm 0.00 in0.0 mm
02:00 AM 49.8°F9.9°C 45.8°F7.7°C 86% 4.6 mph SW7.4 kmh SW 8.1 mph13.0 kmh 30.22 in1023.4 mb - 0.00 in0.0 mm 0.00 in0.0 mm
02:30 AM 49.8°F9.9°C 45.8°F7.7°C 86% 4.6 mph SSW7.4 kmh SSW 5.8 mph9.3 kmh 30.23 in1023.7 mb - 0.00 in0.0 mm 0.00 in0.0 mm
03:00 AM 49.6°F9.8°C 45.9°F7.7°C 87% 4.6 mph WSW7.4 kmh WSW 5.8 mph9.3 kmh 30.24 in1024.0 mb - 0.00 in0.0 mm 0.00 in0.0 mm
03:30 AM 49.3°F9.6°C 45.9°F7.7°C 88% 2.3 mph SW3.7 kmh SW 5.8 mph9.3 kmh 30.24 in1024.0 mb - 0.00 in0.0 mm 0.00 in0.0 mm
04:00 AM 49.3°F9.6°C 46.2°F7.9°C 89% 4.6 mph SSW7.4 kmh SSW 6.9 mph11.1 kmh 30.24 in1024.0 mb - 0.00 in0.0 mm 0.00 in0.0 mm
04:30 AM 48.7°F9.3°C 46.2°F7.9°C 91% 2.3 mph SSW3.7 kmh SSW 6.9 mph11.1 kmh 30.23 in1023.7 mb - 0.00 in0.0 mm 0.00 in0.0 mm
05:00 AM 48.7°F9.3°C 46.2°F7.9°C 91% 4.6 mph S7.4 kmh S 5.8 mph9.3 kmh 30.24 in1024.0 mb - 0.00 in0.0 mm 0.00 in0.0 mm
05:30 AM 48.6°F9.2°C 46.1°F7.8°C 91% 4.6 mph S7.4 kmh S 6.9 mph11.1 kmh 30.25 in1024.4 mb - 0.00 in0.0 mm 0.00 in0.0 mm
06:00 AM 48.6°F9.2°C 46.1°F7.8°C 91% 2.3 mph SW3.7 kmh SW -- 30.26 in1024.7 mb - 0.00 in0.0 mm 0.00 in0.0 mm
06:30 AM 48.0°F8.9°C 45.8°F7.7°C 92% Calm Calm 4.6 mph7.4 kmh 30.27 in1025.1 mb - 0.00 in0.0 mm 0.00 in0.0 mm
07:00 AM 48.4°F9.1°C 45.6°F7.6°C 90% 2.3 mph SW3.7 kmh SW 3.5 mph5.6 kmh 30.27 in1025.1 mb - 0.00 in0.0 mm 0.00 in0.0 mm
07:30 AM 48.4°F9.1°C 45.3°F7.4°C 89% 4.6 mph S7.4 kmh S 4.6 mph7.4 kmh 30.28 in1025.4 mb - 0.00 in0.0 mm 0.00 in0.0 mm
08:00 AM 47.8°F8.8°C 44.8°F7.1°C 89% 2.3 mph SSE3.7 kmh SSE 3.5 mph5.6 kmh 30.29 in1025.7 mb - 0.00 in0.0 mm 0.00 in0.0 mm
08:30 AM 47.3°F8.5°C 44.8°F7.1°C 91% 2.3 mph S3.7 kmh S 3.5 mph5.6 kmh 30.31 in1026.4 mb - 0.00 in0.0 mm 0.00 in0.0 mm
09:00 AM 47.8°F8.8°C 45.0°F7.2°C 90% 2.3 mph SSE3.7 kmh SSE 5.8 mph9.3 kmh 30.32 in1026.8 mb - 0.00 in0.0 mm 0.00 in0.0 mm
09:30 AM 48.4°F9.1°C 45.6°F7.6°C 90% 3.5 mph SE5.6 kmh SE 6.9 mph11.1 kmh 30.33 in1027.1 mb - 0.00 in0.0 mm 0.00 in0.0 mm
10:00 AM 49.3°F9.6°C 45.9°F7.7°C 88% 3.5 mph SSE5.6 kmh SSE 2.3 mph3.7 kmh 30.33 in1027.1 mb - 0.00 in0.0 mm 0.00 in0.0 mm
10:30 AM 50.5°F10.3°C 46.5°F8.1°C 86% 2.3 mph E3.7 kmh E 4.6 mph7.4 kmh 30.33 in1027.1 mb - 0.00 in0.0 mm 0.00 in0.0 mm
11:00 AM 51.4°F10.8°C 46.8°F8.2°C 84% 4.6 mph SSE7.4 kmh SSE 6.9 mph11.1 kmh 30.33 in1027.1 mb - 0.00 in0.0 mm 0.00 in0.0 mm
11:30 AM 52.7°F11.5°C 46.7°F8.2°C 80% 4.6 mph S7.4 kmh S 6.9 mph11.1 kmh 30.33 in1027.1 mb - 0.00 in0.0 mm 0.00 in0.0 mm
12:00 PM 54.7°F12.6°C 46.2°F7.9°C 73% 4.6 mph S7.4 kmh S 6.9 mph11.1 kmh 30.33 in1027.1 mb - 0.00 in0.0 mm 0.00 in0.0 mm
12:30 PM 54.7°F12.6°C 45.5°F7.5°C 71% 5.8 mph S9.3 kmh S 12.7 mph20.4 kmh 30.35 in1027.8 mb - 0.00 in0.0 mm 0.00 in0.0 mm
01:00 PM 54.5°F12.5°C 46.0°F7.8°C 73% 4.6 mph S7.4 kmh S -- 30.34 in1027.4 mb - 0.00 in0.0 mm 0.00 in0.0 mm
01:30 PM 55.3°F12.9°C 46.4°F8.0°C 72% 2.3 mph SSW3.7 kmh SSW 3.5 mph5.6 kmh 30.33 in1027.1 mb - 0.00 in0.0 mm 0.00 in0.0 mm
02:00 PM 55.8°F13.2°C 46.5°F8.1°C 71% 2.3 mph S3.7 kmh S 6.9 mph11.1 kmh 30.33 in1027.1 mb - 0.00 in0.0 mm 0.00 in0.0 mm
02:30 PM 55.8°F13.2°C 46.9°F8.3°C 72% 2.3 mph S3.7 kmh S -- 30.32 in1026.8 mb - 0.00 in0.0 mm 0.00 in0.0 mm
03:00 PM 56.0°F13.3°C 47.5°F8.6°C 73% 3.5 mph SW5.6 kmh SW 6.9 mph11.1 kmh 30.32 in1026.8 mb - 0.00 in0.0 mm 0.00 in0.0 mm
04:00 PM 56.8°F13.8°C 46.4°F8.0°C 68% 4.6 mph SW7.4 kmh SW 8.1 mph13.0 kmh 30.30 in1026.1 mb - 0.00 in0.0 mm 0.00 in0.0 mm
04:30 PM 57.0°F13.9°C 46.6°F8.1°C 68% 5.8 mph S9.3 kmh S 10.4 mph16.7 kmh 30.30 in1026.1 mb - 0.00 in0.0 mm 0.00 in0.0 mm
05:00 PM 56.4°F13.6°C 46.7°F8.2°C 70% 5.8 mph S9.3 kmh S 6.9 mph11.1 kmh 30.30 in1026.1 mb - 0.00 in0.0 mm 0.00 in0.0 mm
05:30 PM 55.9°F13.3°C 46.7°F8.2°C 71% 8.1 mph SSW13.0 kmh SSW 5.8 mph9.3 kmh 30.29 in1025.7 mb - 0.00 in0.0 mm 0.00 in0.0 mm
06:00 PM 54.0°F12.2°C 46.2°F7.9°C 75% 3.5 mph SSW5.6 kmh SSW 3.5 mph5.6 kmh 30.29 in1025.7 mb - 0.00 in0.0 mm 0.00 in0.0 mm
06:30 PM 52.5°F11.4°C 45.5°F7.5°C 77% 1.2 mph SSW1.9 kmh SSW 1.2 mph1.9 kmh 30.30 in1026.1 mb - 0.00 in0.0 mm 0.00 in0.0 mm
07:00 PM 50.4°F10.2°C 44.8°F7.1°C 81% 1.2 mph S1.9 kmh S 2.3 mph3.7 kmh 30.30 in1026.1 mb - 0.00 in0.0 mm 0.00 in0.0 mm
07:30 PM 48.6°F9.2°C 43.9°F6.6°C 84% Calm Calm -- 30.30 in1026.1 mb - 0.00 in0.0 mm 0.00 in0.0 mm
08:00 PM 47.1°F8.4°C 43.4°F6.3°C 87% Calm Calm -- 30.31 in1026.4 mb - 0.00 in0.0 mm 0.00 in0.0 mm
08:30 PM 46.2°F7.9°C 42.9°F6.1°C 88% Calm Calm -- 30.31 in1026.4 mb - 0.00 in0.0 mm 0.00 in0.0 mm
09:00 PM 45.5°F7.5°C 42.7°F5.9°C 90% Calm Calm -- 30.31 in1026.4 mb - 0.00 in0.0 mm 0.00 in0.0 mm
09:30 PM 45.1°F7.3°C 42.7°F5.9°C 91% Calm Calm -- 30.30 in1026.1 mb - 0.00 in0.0 mm 0.00 in0.0 mm
10:00 PM 44.2°F6.8°C 41.8°F5.4°C 91% Calm Calm -- 30.31 in1026.4 mb - 0.00 in0.0 mm 0.00 in0.0 mm
10:30 PM 44.1°F6.7°C 42.2°F5.7°C 93% 2.3 mph S3.7 kmh S 3.5 mph5.6 kmh 30.30 in1026.1 mb - 0.00 in0.0 mm 0.00 in0.0 mm
11:00 PM 44.1°F6.7°C 42.2°F5.7°C 93% 3.5 mph ESE5.6 kmh ESE 3.5 mph5.6 kmh 30.30 in1026.1 mb - 0.00 in0.0 mm 0.00 in0.0 mm
11:30 PM 43.9°F6.6°C 42.0°F5.6°C 93% 2.3 mph ESE3.7 kmh ESE 3.5 mph5.6 kmh 30.30 in1026.1 mb - 0.00 in0.0 mm 0.00 in0.0 mm